La Plata, Missouri
Current Conditions -  °F | °C
As of 7:55 PM on Saturday 22 Nov 2014 (Local Time) from KIRK Reporting Station
Clear Clear  
Wind Chill: 52°   Ceiling: Unl
Heat Index: 52°   Visibility: 10mi
Dew Point: 50°   Wind: 10mph
Humidity: 93%   Direction: 180°S
Pressure: 29.79"   Gusts: NA
Location:  40.02°N, 92.49°W
Report Text: KIRK 230155Z AUTO 18009KT 10SM CLR 11/10 A2979 RMK AO2 SLP091 T01110100
Loading
Personal Weather Stations






























Interactive Weather Map New forecast layout! Learn more

10-Day Weather Forecast

Advertisements
Track Severe Weather on mobile